Forside
METAR-TAF:

METAR-TAF

Lufthavne :

Samarkand, Usbekistan

Breddekreds: 39-34N, længdekreds: 066-57E, højde: 724 m

Aktuelle vejr

Denne rapport blev lavet for 33 minutter siden, kl. 23:30 UTC
Vind 6 kt fra sydsydøst
Temperatur 24°C
Fugtighed 38%
Tryk 1001 hPa
Sigt: 6000 m

METAR: UTSS 162330Z 15006KT 6000 NSC 24/09 Q1001 R09/70D NOSIG

Tid: 05:03 (00:03 UTC)

Vejrudsigter

Denne rapport blev lavet for 1 time og 3 minutter siden, kl. 23:00 UTC
Foreløbig gælder fra 17 på 00 UTC til 17 på 24 UTC
Vind 10 kt fra øst med vindstød på up til 20 kt
Sigt 10 km eller mere
Midlertidig
fra 17 på 05 UTC til 17 på 12 UTC
Vind 10 kt fra nordvest med vindstød på up til 20 kt

TAF: UTSS 162300Z 1700/1724 09010G20KT 9999 NSC TX37/1709Z TEMPO 1705/1712 31010G20KT

Vejrobservationer og prognoser fra mere end 4000 lufthavne (METAR og TAF).

De gule og røde prikker repræsenterer de meteorologiske stationer.

Flyt musen over at se navnet på stationen.

Så klik over at se vejr observationer og prognoser.

At skifte det kort: Klik på de grønne knapper med et sort kors for at zoome ind; på den grønne knap med en bindestreg for at zoome ud; eller på de grønne pile for tilstødende kort.


METAR-TAF: